sensor_id;sensor_type;location;lat;lon;timestamp;P1;durP1;ratioP1;P2;durP2;ratioP2
34064;SDS011;20339;49.754;20.158;2023-11-19T00:00:42;34.40;;;23.20;;
34064;SDS011;20339;49.754;20.158;2023-11-19T00:03:33;31.70;;;21.40;;
34064;SDS011;20339;49.754;20.158;2023-11-19T00:06:05;31.50;;;21.50;;
34064;SDS011;20339;49.754;20.158;2023-11-19T00:08:39;34.20;;;23.10;;
34064;SDS011;20339;49.754;20.158;2023-11-19T00:11:11;35.50;;;22.20;;
34064;SDS011;20339;49.754;20.158;2023-11-19T00:13:45;31.10;;;22.40;;
34064;SDS011;20339;49.754;20.158;2023-11-19T00:16:16;34.60;;;22.40;;
34064;SDS011;20339;49.754;20.158;2023-11-19T00:18:47;37.90;;;24.10;;
34064;SDS011;20339;49.754;20.158;2023-11-19T00:21:19;35.00;;;23.80;;
34064;SDS011;20339;49.754;20.158;2023-11-19T00:23:51;33.80;;;23.40;;
34064;SDS011;20339;49.754;20.158;2023-11-19T00:26:27;34.50;;;23.60;;
34064;SDS011;20339;49.754;20.158;2023-11-19T00:28:59;34.50;;;22.80;;
34064;SDS011;20339;49.754;20.158;2023-11-19T00:31:35;31.40;;;21.60;;
34064;SDS011;20339;49.754;20.158;2023-11-19T00:34:07;33.00;;;23.00;;
34064;SDS011;20339;49.754;20.158;2023-11-19T00:36:39;33.90;;;22.40;;
34064;SDS011;20339;49.754;20.158;2023-11-19T00:39:11;32.90;;;22.40;;
34064;SDS011;20339;49.754;20.158;2023-11-19T00:41:44;33.00;;;22.60;;
34064;SDS011;20339;49.754;20.158;2023-11-19T00:44:15;36.50;;;24.70;;
34064;SDS011;20339;49.754;20.158;2023-11-19T00:46:48;35.50;;;23.20;;
34064;SDS011;20339;49.754;20.158;2023-11-19T00:49:20;37.90;;;24.90;;
34064;SDS011;20339;49.754;20.158;2023-11-19T00:51:51;38.40;;;24.50;;
34064;SDS011;20339;49.754;20.158;2023-11-19T00:54:23;34.50;;;22.80;;
34064;SDS011;20339;49.754;20.158;2023-11-19T00:56:58;34.00;;;21.80;;
34064;SDS011;20339;49.754;20.158;2023-11-19T00:59:30;35.50;;;22.50;;
34064;SDS011;20339;49.754;20.158;2023-11-19T01:02:01;38.60;;;23.90;;
34064;SDS011;20339;49.754;20.158;2023-11-19T01:04:37;35.40;;;21.90;;
34064;SDS011;20339;49.754;20.158;2023-11-19T01:07:08;36.70;;;22.30;;
34064;SDS011;20339;49.754;20.158;2023-11-19T01:09:42;32.60;;;22.50;;
34064;SDS011;20339;49.754;20.158;2023-11-19T01:12:14;36.00;;;23.30;;
34064;SDS011;20339;49.754;20.158;2023-11-19T01:14:46;34.10;;;21.40;;
34064;SDS011;20339;49.754;20.158;2023-11-19T01:17:17;39.60;;;23.40;;
34064;SDS011;20339;49.754;20.158;2023-11-19T01:19:49;35.90;;;23.50;;
34064;SDS011;20339;49.754;20.158;2023-11-19T01:22:20;36.30;;;22.60;;
34064;SDS011;20339;49.754;20.158;2023-11-19T01:24:51;38.80;;;23.60;;
34064;SDS011;20339;49.754;20.158;2023-11-19T01:27:23;35.90;;;22.60;;
34064;SDS011;20339;49.754;20.158;2023-11-19T01:29:55;35.60;;;22.90;;
34064;SDS011;20339;49.754;20.158;2023-11-19T01:32:28;35.60;;;22.50;;
34064;SDS011;20339;49.754;20.158;2023-11-19T01:35:00;37.60;;;23.90;;
34064;SDS011;20339;49.754;20.158;2023-11-19T01:37:32;36.40;;;23.30;;
34064;SDS011;20339;49.754;20.158;2023-11-19T01:40:05;35.20;;;22.80;;
34064;SDS011;20339;49.754;20.158;2023-11-19T01:42:40;36.30;;;22.30;;
34064;SDS011;20339;49.754;20.158;2023-11-19T01:45:16;32.40;;;22.00;;
34064;SDS011;20339;49.754;20.158;2023-11-19T01:47:59;32.90;;;21.30;;
34064;SDS011;20339;49.754;20.158;2023-11-19T01:50:32;38.20;;;23.80;;
34064;SDS011;20339;49.754;20.158;2023-11-19T01:53:04;34.70;;;22.30;;
34064;SDS011;20339;49.754;20.158;2023-11-19T01:55:36;35.80;;;22.90;;
34064;SDS011;20339;49.754;20.158;2023-11-19T01:58:09;37.70;;;23.00;;
34064;SDS011;20339;49.754;20.158;2023-11-19T02:00:40;35.90;;;22.50;;
34064;SDS011;20339;49.754;20.158;2023-11-19T02:03:13;32.60;;;21.80;;
34064;SDS011;20339;49.754;20.158;2023-11-19T02:05:45;32.90;;;21.60;;
34064;SDS011;20339;49.754;20.158;2023-11-19T02:08:20;35.00;;;22.00;;
34064;SDS011;20339;49.754;20.158;2023-11-19T02:10:51;36.00;;;22.60;;
34064;SDS011;20339;49.754;20.158;2023-11-19T02:13:25;34.00;;;22.10;;
34064;SDS011;20339;49.754;20.158;2023-11-19T02:15:56;38.30;;;24.20;;
34064;SDS011;20339;49.754;20.158;2023-11-19T02:18:28;34.90;;;23.20;;
34064;SDS011;20339;49.754;20.158;2023-11-19T02:21:00;38.10;;;22.20;;
34064;SDS011;20339;49.754;20.158;2023-11-19T02:23:34;32.80;;;21.80;;
34064;SDS011;20339;49.754;20.158;2023-11-19T02:26:14;33.20;;;21.80;;
34064;SDS011;20339;49.754;20.158;2023-11-19T02:28:47;34.30;;;23.10;;
34064;SDS011;20339;49.754;20.158;2023-11-19T02:31:18;35.30;;;23.00;;
34064;SDS011;20339;49.754;20.158;2023-11-19T02:33:51;37.90;;;24.80;;
34064;SDS011;20339;49.754;20.158;2023-11-19T02:36:22;42.40;;;26.50;;
34064;SDS011;20339;49.754;20.158;2023-11-19T02:38:56;38.20;;;25.10;;
34064;SDS011;20339;49.754;20.158;2023-11-19T02:41:30;35.00;;;22.90;;
34064;SDS011;20339;49.754;20.158;2023-11-19T02:44:04;30.60;;;21.30;;
34064;SDS011;20339;49.754;20.158;2023-11-19T02:46:35;34.40;;;22.20;;
34064;SDS011;20339;49.754;20.158;2023-11-19T02:49:06;36.10;;;21.60;;
34064;SDS011;20339;49.754;20.158;2023-11-19T02:51:37;34.50;;;21.00;;
34064;SDS011;20339;49.754;20.158;2023-11-19T02:54:09;36.30;;;21.50;;
34064;SDS011;20339;49.754;20.158;2023-11-19T02:56:43;34.40;;;23.10;;
34064;SDS011;20339;49.754;20.158;2023-11-19T02:59:15;33.00;;;21.70;;
34064;SDS011;20339;49.754;20.158;2023-11-19T03:01:55;36.80;;;23.20;;
34064;SDS011;20339;49.754;20.158;2023-11-19T03:04:28;38.40;;;23.80;;
34064;SDS011;20339;49.754;20.158;2023-11-19T03:06:58;40.30;;;24.20;;
34064;SDS011;20339;49.754;20.158;2023-11-19T03:09:30;34.50;;;21.20;;
34064;SDS011;20339;49.754;20.158;2023-11-19T03:12:02;36.90;;;23.20;;
34064;SDS011;20339;49.754;20.158;2023-11-19T03:14:34;33.80;;;22.50;;
34064;SDS011;20339;49.754;20.158;2023-11-19T03:17:05;37.60;;;22.90;;
34064;SDS011;20339;49.754;20.158;2023-11-19T03:19:37;34.70;;;23.40;;
34064;SDS011;20339;49.754;20.158;2023-11-19T03:22:08;40.80;;;24.10;;
34064;SDS011;20339;49.754;20.158;2023-11-19T03:24:40;37.70;;;24.00;;
34064;SDS011;20339;49.754;20.158;2023-11-19T03:27:13;35.20;;;22.90;;
34064;SDS011;20339;49.754;20.158;2023-11-19T03:29:44;33.10;;;22.30;;
34064;SDS011;20339;49.754;20.158;2023-11-19T03:32:16;32.90;;;20.50;;
34064;SDS011;20339;49.754;20.158;2023-11-19T03:34:47;34.10;;;23.30;;
34064;SDS011;20339;49.754;20.158;2023-11-19T03:37:18;32.80;;;22.10;;
34064;SDS011;20339;49.754;20.158;2023-11-19T03:39:49;34.80;;;22.60;;
34064;SDS011;20339;49.754;20.158;2023-11-19T03:42:27;35.60;;;22.50;;
34064;SDS011;20339;49.754;20.158;2023-11-19T03:44:58;30.50;;;21.40;;
34064;SDS011;20339;49.754;20.158;2023-11-19T03:47:31;34.90;;;23.60;;
34064;SDS011;20339;49.754;20.158;2023-11-19T03:50:06;33.60;;;21.70;;
34064;SDS011;20339;49.754;20.158;2023-11-19T03:52:37;36.40;;;22.50;;
34064;SDS011;20339;49.754;20.158;2023-11-19T03:55:09;33.10;;;22.30;;
34064;SDS011;20339;49.754;20.158;2023-11-19T03:57:40;35.50;;;22.10;;
34064;SDS011;20339;49.754;20.158;2023-11-19T04:00:12;32.60;;;22.10;;
34064;SDS011;20339;49.754;20.158;2023-11-19T04:02:43;36.20;;;23.70;;
34064;SDS011;20339;49.754;20.158;2023-11-19T04:05:15;36.50;;;23.80;;
34064;SDS011;20339;49.754;20.158;2023-11-19T04:07:46;32.80;;;22.70;;
34064;SDS011;20339;49.754;20.158;2023-11-19T04:10:17;34.30;;;23.20;;
34064;SDS011;20339;49.754;20.158;2023-11-19T04:12:50;30.80;;;20.90;;
34064;SDS011;20339;49.754;20.158;2023-11-19T04:15:21;36.80;;;23.50;;
34064;SDS011;20339;49.754;20.158;2023-11-19T04:17:52;32.50;;;20.30;;
34064;SDS011;20339;49.754;20.158;2023-11-19T04:20:23;32.60;;;21.50;;
34064;SDS011;20339;49.754;20.158;2023-11-19T04:22:54;26.40;;;16.30;;
34064;SDS011;20339;49.754;20.158;2023-11-19T04:25:25;22.80;;;15.00;;
34064;SDS011;20339;49.754;20.158;2023-11-19T04:27:56;23.40;;;15.50;;
34064;SDS011;20339;49.754;20.158;2023-11-19T04:30:28;24.70;;;15.40;;
34064;SDS011;20339;49.754;20.158;2023-11-19T04:33:00;17.50;;;11.90;;
34064;SDS011;20339;49.754;20.158;2023-11-19T04:35:31;15.20;;;9.80;;
34064;SDS011;20339;49.754;20.158;2023-11-19T04:38:02;16.80;;;11.10;;
34064;SDS011;20339;49.754;20.158;2023-11-19T04:40:33;14.50;;;10.00;;
34064;SDS011;20339;49.754;20.158;2023-11-19T04:43:05;12.70;;;8.60;;
34064;SDS011;20339;49.754;20.158;2023-11-19T04:45:45;10.00;;;6.90;;
34064;SDS011;20339;49.754;20.158;2023-11-19T04:48:16;12.60;;;9.10;;
34064;SDS011;20339;49.754;20.158;2023-11-19T04:50:47;11.60;;;7.80;;
34064;SDS011;20339;49.754;20.158;2023-11-19T04:53:20;10.00;;;6.80;;
34064;SDS011;20339;49.754;20.158;2023-11-19T04:55:51;11.30;;;6.70;;
34064;SDS011;20339;49.754;20.158;2023-11-19T04:58:22;10.60;;;7.30;;
34064;SDS011;20339;49.754;20.158;2023-11-19T05:00:53;10.40;;;6.20;;
34064;SDS011;20339;49.754;20.158;2023-11-19T05:03:24;9.80;;;6.60;;
34064;SDS011;20339;49.754;20.158;2023-11-19T05:05:55;10.70;;;6.60;;
34064;SDS011;20339;49.754;20.158;2023-11-19T05:08:29;10.60;;;7.00;;
34064;SDS011;20339;49.754;20.158;2023-11-19T05:11:03;10.40;;;6.90;;
34064;SDS011;20339;49.754;20.158;2023-11-19T05:13:35;8.70;;;6.20;;
34064;SDS011;20339;49.754;20.158;2023-11-19T05:16:06;11.00;;;6.30;;
34064;SDS011;20339;49.754;20.158;2023-11-19T05:18:37;9.20;;;6.10;;
34064;SDS011;20339;49.754;20.158;2023-11-19T05:21:08;8.50;;;5.60;;
34064;SDS011;20339;49.754;20.158;2023-11-19T05:23:40;12.60;;;7.90;;
34064;SDS011;20339;49.754;20.158;2023-11-19T05:26:18;11.60;;;8.40;;
34064;SDS011;20339;49.754;20.158;2023-11-19T05:28:50;12.20;;;7.60;;
34064;SDS011;20339;49.754;20.158;2023-11-19T05:31:21;12.00;;;7.70;;
34064;SDS011;20339;49.754;20.158;2023-11-19T05:33:52;11.10;;;7.40;;
34064;SDS011;20339;49.754;20.158;2023-11-19T05:36:23;10.50;;;7.20;;
34064;SDS011;20339;49.754;20.158;2023-11-19T05:38:57;11.40;;;8.20;;
34064;SDS011;20339;49.754;20.158;2023-11-19T05:41:28;15.50;;;10.30;;
34064;SDS011;20339;49.754;20.158;2023-11-19T05:43:59;16.50;;;11.60;;
34064;SDS011;20339;49.754;20.158;2023-11-19T05:46:34;12.20;;;7.80;;
34064;SDS011;20339;49.754;20.158;2023-11-19T05:49:08;9.70;;;6.50;;
34064;SDS011;20339;49.754;20.158;2023-11-19T05:51:39;8.70;;;5.80;;
34064;SDS011;20339;49.754;20.158;2023-11-19T05:54:13;9.20;;;6.00;;
34064;SDS011;20339;49.754;20.158;2023-11-19T05:56:48;9.30;;;6.10;;
34064;SDS011;20339;49.754;20.158;2023-11-19T05:59:21;12.40;;;6.20;;
34064;SDS011;20339;49.754;20.158;2023-11-19T06:01:53;8.80;;;6.60;;
34064;SDS011;20339;49.754;20.158;2023-11-19T06:04:24;10.30;;;6.60;;
34064;SDS011;20339;49.754;20.158;2023-11-19T06:06:55;8.90;;;5.60;;
34064;SDS011;20339;49.754;20.158;2023-11-19T06:09:29;8.60;;;6.00;;
34064;SDS011;20339;49.754;20.158;2023-11-19T06:12:01;7.60;;;5.40;;
34064;SDS011;20339;49.754;20.158;2023-11-19T06:14:34;11.30;;;6.90;;
34064;SDS011;20339;49.754;20.158;2023-11-19T06:17:05;11.90;;;7.00;;
34064;SDS011;20339;49.754;20.158;2023-11-19T06:19:38;11.90;;;7.20;;
34064;SDS011;20339;49.754;20.158;2023-11-19T06:22:10;11.40;;;7.40;;
34064;SDS011;20339;49.754;20.158;2023-11-19T06:24:41;10.60;;;7.30;;
34064;SDS011;20339;49.754;20.158;2023-11-19T06:27:12;9.20;;;6.40;;
34064;SDS011;20339;49.754;20.158;2023-11-19T06:29:43;10.00;;;7.30;;
34064;SDS011;20339;49.754;20.158;2023-11-19T06:32:14;10.10;;;6.30;;
34064;SDS011;20339;49.754;20.158;2023-11-19T06:34:45;9.20;;;6.30;;
34064;SDS011;20339;49.754;20.158;2023-11-19T06:37:16;9.00;;;6.20;;
34064;SDS011;20339;49.754;20.158;2023-11-19T06:39:47;8.80;;;6.20;;
34064;SDS011;20339;49.754;20.158;2023-11-19T06:42:19;11.20;;;7.50;;
34064;SDS011;20339;49.754;20.158;2023-11-19T06:44:52;9.80;;;7.10;;
34064;SDS011;20339;49.754;20.158;2023-11-19T06:47:26;12.00;;;8.10;;
34064;SDS011;20339;49.754;20.158;2023-11-19T06:49:57;11.00;;;7.10;;
34064;SDS011;20339;49.754;20.158;2023-11-19T06:52:29;11.40;;;8.30;;
34064;SDS011;20339;49.754;20.158;2023-11-19T06:55:02;11.60;;;7.80;;
34064;SDS011;20339;49.754;20.158;2023-11-19T06:57:34;11.20;;;7.20;;
34064;SDS011;20339;49.754;20.158;2023-11-19T07:00:07;10.40;;;7.40;;
34064;SDS011;20339;49.754;20.158;2023-11-19T07:02:39;10.40;;;6.60;;
34064;SDS011;20339;49.754;20.158;2023-11-19T07:05:14;11.50;;;7.80;;
34064;SDS011;20339;49.754;20.158;2023-11-19T07:07:46;10.30;;;6.60;;
34064;SDS011;20339;49.754;20.158;2023-11-19T07:10:17;10.60;;;7.50;;
34064;SDS011;20339;49.754;20.158;2023-11-19T07:12:48;9.60;;;6.70;;
34064;SDS011;20339;49.754;20.158;2023-11-19T07:15:19;10.30;;;7.10;;
34064;SDS011;20339;49.754;20.158;2023-11-19T07:17:50;11.20;;;7.70;;
34064;SDS011;20339;49.754;20.158;2023-11-19T07:20:22;10.30;;;7.10;;
34064;SDS011;20339;49.754;20.158;2023-11-19T07:22:55;11.10;;;7.50;;
34064;SDS011;20339;49.754;20.158;2023-11-19T07:25:26;10.60;;;7.40;;
34064;SDS011;20339;49.754;20.158;2023-11-19T07:27:57;9.00;;;6.40;;
34064;SDS011;20339;49.754;20.158;2023-11-19T07:30:29;10.60;;;7.20;;
34064;SDS011;20339;49.754;20.158;2023-11-19T07:33:00;10.60;;;7.30;;
34064;SDS011;20339;49.754;20.158;2023-11-19T07:35:32;9.80;;;7.00;;
34064;SDS011;20339;49.754;20.158;2023-11-19T07:38:03;9.80;;;7.20;;
34064;SDS011;20339;49.754;20.158;2023-11-19T07:40:35;9.50;;;6.70;;
34064;SDS011;20339;49.754;20.158;2023-11-19T07:43:06;10.10;;;6.80;;
34064;SDS011;20339;49.754;20.158;2023-11-19T07:45:37;10.60;;;7.00;;
34064;SDS011;20339;49.754;20.158;2023-11-19T07:48:13;9.30;;;6.20;;
34064;SDS011;20339;49.754;20.158;2023-11-19T07:50:44;9.90;;;6.40;;
34064;SDS011;20339;49.754;20.158;2023-11-19T07:53:15;10.20;;;5.80;;
34064;SDS011;20339;49.754;20.158;2023-11-19T07:55:46;9.30;;;7.00;;
34064;SDS011;20339;49.754;20.158;2023-11-19T07:58:19;10.80;;;7.00;;
34064;SDS011;20339;49.754;20.158;2023-11-19T08:00:50;11.10;;;7.40;;
34064;SDS011;20339;49.754;20.158;2023-11-19T08:03:22;11.80;;;8.20;;
34064;SDS011;20339;49.754;20.158;2023-11-19T08:05:54;10.80;;;8.30;;
34064;SDS011;20339;49.754;20.158;2023-11-19T08:08:26;9.80;;;7.30;;
34064;SDS011;20339;49.754;20.158;2023-11-19T08:10:58;10.80;;;7.90;;
34064;SDS011;20339;49.754;20.158;2023-11-19T08:13:29;11.50;;;7.30;;
34064;SDS011;20339;49.754;20.158;2023-11-19T08:16:00;11.30;;;7.90;;
34064;SDS011;20339;49.754;20.158;2023-11-19T08:18:32;11.20;;;7.80;;
34064;SDS011;20339;49.754;20.158;2023-11-19T08:21:03;10.40;;;6.60;;
34064;SDS011;20339;49.754;20.158;2023-11-19T08:23:35;11.10;;;7.40;;
34064;SDS011;20339;49.754;20.158;2023-11-19T08:26:07;11.60;;;6.50;;
34064;SDS011;20339;49.754;20.158;2023-11-19T08:28:38;9.70;;;6.40;;
34064;SDS011;20339;49.754;20.158;2023-11-19T08:31:09;11.30;;;7.00;;
34064;SDS011;20339;49.754;20.158;2023-11-19T08:33:41;11.80;;;7.90;;
34064;SDS011;20339;49.754;20.158;2023-11-19T08:36:16;10.70;;;6.00;;
34064;SDS011;20339;49.754;20.158;2023-11-19T08:38:48;12.90;;;8.10;;
34064;SDS011;20339;49.754;20.158;2023-11-19T08:41:20;13.90;;;8.20;;
34064;SDS011;20339;49.754;20.158;2023-11-19T08:43:51;11.60;;;7.00;;
34064;SDS011;20339;49.754;20.158;2023-11-19T08:46:23;10.60;;;6.70;;
34064;SDS011;20339;49.754;20.158;2023-11-19T08:48:54;13.30;;;8.20;;
34064;SDS011;20339;49.754;20.158;2023-11-19T08:51:28;10.90;;;7.70;;
34064;SDS011;20339;49.754;20.158;2023-11-19T08:53:59;10.90;;;6.80;;
34064;SDS011;20339;49.754;20.158;2023-11-19T08:56:31;9.60;;;5.80;;
34064;SDS011;20339;49.754;20.158;2023-11-19T08:59:03;11.30;;;7.40;;
34064;SDS011;20339;49.754;20.158;2023-11-19T09:01:34;11.70;;;6.20;;
34064;SDS011;20339;49.754;20.158;2023-11-19T09:04:05;12.10;;;8.00;;
34064;SDS011;20339;49.754;20.158;2023-11-19T09:06:36;12.60;;;8.00;;
34064;SDS011;20339;49.754;20.158;2023-11-19T09:09:08;10.90;;;7.20;;
34064;SDS011;20339;49.754;20.158;2023-11-19T09:11:39;13.10;;;8.20;;
34064;SDS011;20339;49.754;20.158;2023-11-19T09:14:10;11.90;;;7.70;;
34064;SDS011;20339;49.754;20.158;2023-11-19T09:16:44;8.10;;;4.70;;
34064;SDS011;20339;49.754;20.158;2023-11-19T09:19:15;9.40;;;5.90;;
34064;SDS011;20339;49.754;20.158;2023-11-19T09:21:46;12.10;;;7.90;;
34064;SDS011;20339;49.754;20.158;2023-11-19T09:24:18;11.80;;;7.50;;
34064;SDS011;20339;49.754;20.158;2023-11-19T09:26:49;9.20;;;6.30;;
34064;SDS011;20339;49.754;20.158;2023-11-19T09:29:22;11.50;;;7.20;;
34064;SDS011;20339;49.754;20.158;2023-11-19T09:31:53;10.60;;;6.30;;
34064;SDS011;20339;49.754;20.158;2023-11-19T09:34:24;10.90;;;5.30;;
34064;SDS011;20339;49.754;20.158;2023-11-19T09:36:55;12.10;;;8.00;;
34064;SDS011;20339;49.754;20.158;2023-11-19T09:39:27;8.60;;;4.80;;
34064;SDS011;20339;49.754;20.158;2023-11-19T09:41:58;12.80;;;8.00;;
34064;SDS011;20339;49.754;20.158;2023-11-19T09:44:31;13.10;;;8.60;;
34064;SDS011;20339;49.754;20.158;2023-11-19T09:47:03;11.80;;;7.60;;
34064;SDS011;20339;49.754;20.158;2023-11-19T09:49:36;12.20;;;8.30;;
34064;SDS011;20339;49.754;20.158;2023-11-19T09:52:08;12.40;;;8.80;;
34064;SDS011;20339;49.754;20.158;2023-11-19T09:54:39;14.30;;;9.70;;
34064;SDS011;20339;49.754;20.158;2023-11-19T09:57:11;12.60;;;8.00;;
34064;SDS011;20339;49.754;20.158;2023-11-19T09:59:45;11.40;;;8.50;;
34064;SDS011;20339;49.754;20.158;2023-11-19T10:02:17;13.10;;;7.70;;
34064;SDS011;20339;49.754;20.158;2023-11-19T10:04:49;10.70;;;7.10;;
34064;SDS011;20339;49.754;20.158;2023-11-19T10:07:22;11.80;;;8.00;;
34064;SDS011;20339;49.754;20.158;2023-11-19T10:09:54;7.60;;;4.90;;
34064;SDS011;20339;49.754;20.158;2023-11-19T10:12:25;10.70;;;5.40;;
34064;SDS011;20339;49.754;20.158;2023-11-19T10:14:57;11.40;;;6.50;;
34064;SDS011;20339;49.754;20.158;2023-11-19T10:17:33;11.60;;;8.10;;
34064;SDS011;20339;49.754;20.158;2023-11-19T10:20:06;10.80;;;6.60;;
34064;SDS011;20339;49.754;20.158;2023-11-19T10:22:39;11.60;;;6.80;;
34064;SDS011;20339;49.754;20.158;2023-11-19T10:25:21;10.90;;;7.50;;
34064;SDS011;20339;49.754;20.158;2023-11-19T10:27:54;10.70;;;7.10;;
34064;SDS011;20339;49.754;20.158;2023-11-19T10:30:26;9.40;;;6.20;;
34064;SDS011;20339;49.754;20.158;2023-11-19T10:33:05;8.90;;;6.20;;
34064;SDS011;20339;49.754;20.158;2023-11-19T10:35:50;7.20;;;5.20;;
34064;SDS011;20339;49.754;20.158;2023-11-19T10:38:22;9.10;;;6.60;;
34064;SDS011;20339;49.754;20.158;2023-11-19T10:40:54;7.50;;;5.10;;
34064;SDS011;20339;49.754;20.158;2023-11-19T10:43:26;7.70;;;4.10;;
34064;SDS011;20339;49.754;20.158;2023-11-19T10:45:58;8.40;;;5.00;;
34064;SDS011;20339;49.754;20.158;2023-11-19T10:48:40;7.50;;;5.20;;
34064;SDS011;20339;49.754;20.158;2023-11-19T10:51:11;10.70;;;7.20;;
34064;SDS011;20339;49.754;20.158;2023-11-19T10:53:49;10.30;;;5.90;;
34064;SDS011;20339;49.754;20.158;2023-11-19T10:56:24;11.50;;;7.60;;
34064;SDS011;20339;49.754;20.158;2023-11-19T10:59:00;10.90;;;6.80;;
34064;SDS011;20339;49.754;20.158;2023-11-19T11:01:34;10.50;;;7.10;;
34064;SDS011;20339;49.754;20.158;2023-11-19T11:04:11;10.80;;;7.50;;
34064;SDS011;20339;49.754;20.158;2023-11-19T11:06:48;10.90;;;7.40;;
34064;SDS011;20339;49.754;20.158;2023-11-19T11:09:19;9.10;;;6.50;;
34064;SDS011;20339;49.754;20.158;2023-11-19T11:11:52;8.20;;;5.50;;
34064;SDS011;20339;49.754;20.158;2023-11-19T11:14:23;9.70;;;6.00;;
34064;SDS011;20339;49.754;20.158;2023-11-19T11:16:56;6.90;;;5.00;;
34064;SDS011;20339;49.754;20.158;2023-11-19T11:19:27;7.40;;;5.50;;
34064;SDS011;20339;49.754;20.158;2023-11-19T11:21:58;6.30;;;4.50;;
34064;SDS011;20339;49.754;20.158;2023-11-19T11:24:37;9.50;;;4.90;;
34064;SDS011;20339;49.754;20.158;2023-11-19T11:27:33;7.50;;;4.60;;
34064;SDS011;20339;49.754;20.158;2023-11-19T11:30:29;6.30;;;4.70;;
34064;SDS011;20339;49.754;20.158;2023-11-19T11:33:15;8.00;;;4.50;;
34064;SDS011;20339;49.754;20.158;2023-11-19T11:36:06;11.30;;;4.70;;
34064;SDS011;20339;49.754;20.158;2023-11-19T11:38:48;8.00;;;5.10;;
34064;SDS011;20339;49.754;20.158;2023-11-19T11:41:21;7.60;;;5.00;;
34064;SDS011;20339;49.754;20.158;2023-11-19T11:43:54;7.90;;;4.60;;
34064;SDS011;20339;49.754;20.158;2023-11-19T11:49:28;8.50;;;5.20;;
34064;SDS011;20339;49.754;20.158;2023-11-19T11:52:01;6.40;;;4.50;;
34064;SDS011;20339;49.754;20.158;2023-11-19T11:54:33;9.50;;;5.90;;
34064;SDS011;20339;49.754;20.158;2023-11-19T11:57:10;8.10;;;5.40;;
34064;SDS011;20339;49.754;20.158;2023-11-19T11:59:46;7.40;;;4.80;;
34064;SDS011;20339;49.754;20.158;2023-11-19T12:02:19;9.30;;;5.90;;
34064;SDS011;20339;49.754;20.158;2023-11-19T12:04:52;11.00;;;6.10;;
34064;SDS011;20339;49.754;20.158;2023-11-19T12:07:24;10.20;;;6.70;;
34064;SDS011;20339;49.754;20.158;2023-11-19T12:10:05;9.00;;;5.30;;
34064;SDS011;20339;49.754;20.158;2023-11-19T12:12:40;8.50;;;5.50;;
34064;SDS011;20339;49.754;20.158;2023-11-19T12:15:12;10.70;;;6.70;;
34064;SDS011;20339;49.754;20.158;2023-11-19T12:17:46;11.30;;;6.60;;
34064;SDS011;20339;49.754;20.158;2023-11-19T12:20:19;8.70;;;4.70;;
34064;SDS011;20339;49.754;20.158;2023-11-19T12:22:51;10.80;;;6.30;;
34064;SDS011;20339;49.754;20.158;2023-11-19T12:25:23;10.00;;;6.40;;
34064;SDS011;20339;49.754;20.158;2023-11-19T12:27:55;10.60;;;6.60;;
34064;SDS011;20339;49.754;20.158;2023-11-19T12:30:29;8.10;;;5.00;;
34064;SDS011;20339;49.754;20.158;2023-11-19T12:33:07;9.80;;;6.80;;
34064;SDS011;20339;49.754;20.158;2023-11-19T12:35:40;10.50;;;6.60;;
34064;SDS011;20339;49.754;20.158;2023-11-19T12:38:19;10.80;;;7.60;;
34064;SDS011;20339;49.754;20.158;2023-11-19T12:41:03;13.00;;;8.70;;
34064;SDS011;20339;49.754;20.158;2023-11-19T12:43:39;9.10;;;6.20;;
34064;SDS011;20339;49.754;20.158;2023-11-19T12:46:19;12.20;;;8.10;;
34064;SDS011;20339;49.754;20.158;2023-11-19T12:48:57;13.00;;;8.00;;
34064;SDS011;20339;49.754;20.158;2023-11-19T12:51:32;12.20;;;8.70;;
34064;SDS011;20339;49.754;20.158;2023-11-19T12:54:06;11.90;;;7.70;;
34064;SDS011;20339;49.754;20.158;2023-11-19T12:56:39;12.10;;;7.00;;
34064;SDS011;20339;49.754;20.158;2023-11-19T12:59:20;11.00;;;7.60;;
34064;SDS011;20339;49.754;20.158;2023-11-19T13:01:55;11.50;;;7.30;;
34064;SDS011;20339;49.754;20.158;2023-11-19T13:04:29;11.10;;;7.00;;
34064;SDS011;20339;49.754;20.158;2023-11-19T13:07:01;14.30;;;9.30;;
34064;SDS011;20339;49.754;20.158;2023-11-19T13:09:33;11.60;;;7.40;;
34064;SDS011;20339;49.754;20.158;2023-11-19T13:12:13;10.90;;;7.10;;
34064;SDS011;20339;49.754;20.158;2023-11-19T13:14:47;11.10;;;7.30;;
34064;SDS011;20339;49.754;20.158;2023-11-19T13:17:19;12.10;;;8.30;;
34064;SDS011;20339;49.754;20.158;2023-11-19T13:19:52;10.20;;;6.80;;
34064;SDS011;20339;49.754;20.158;2023-11-19T13:22:25;9.70;;;6.30;;
34064;SDS011;20339;49.754;20.158;2023-11-19T13:24:57;8.20;;;5.10;;
34064;SDS011;20339;49.754;20.158;2023-11-19T13:27:31;9.60;;;6.30;;
34064;SDS011;20339;49.754;20.158;2023-11-19T13:30:06;8.30;;;6.10;;
34064;SDS011;20339;49.754;20.158;2023-11-19T13:32:39;10.00;;;6.70;;
34064;SDS011;20339;49.754;20.158;2023-11-19T13:35:11;6.30;;;4.40;;
34064;SDS011;20339;49.754;20.158;2023-11-19T13:37:43;10.30;;;6.60;;
34064;SDS011;20339;49.754;20.158;2023-11-19T13:40:15;9.10;;;5.70;;
34064;SDS011;20339;49.754;20.158;2023-11-19T13:42:47;10.90;;;7.30;;
34064;SDS011;20339;49.754;20.158;2023-11-19T13:45:19;10.10;;;6.50;;
34064;SDS011;20339;49.754;20.158;2023-11-19T13:47:52;9.10;;;6.10;;
34064;SDS011;20339;49.754;20.158;2023-11-19T13:50:24;9.90;;;6.20;;
34064;SDS011;20339;49.754;20.158;2023-11-19T13:52:56;9.60;;;6.00;;
34064;SDS011;20339;49.754;20.158;2023-11-19T13:55:28;9.20;;;4.90;;
34064;SDS011;20339;49.754;20.158;2023-11-19T13:58:00;11.10;;;6.40;;
34064;SDS011;20339;49.754;20.158;2023-11-19T14:00:31;8.70;;;6.10;;
34064;SDS011;20339;49.754;20.158;2023-11-19T14:03:02;8.00;;;4.90;;
34064;SDS011;20339;49.754;20.158;2023-11-19T14:05:34;10.60;;;6.70;;
34064;SDS011;20339;49.754;20.158;2023-11-19T14:08:06;6.40;;;4.30;;
34064;SDS011;20339;49.754;20.158;2023-11-19T14:10:41;9.00;;;5.50;;
34064;SDS011;20339;49.754;20.158;2023-11-19T14:13:12;10.70;;;6.90;;
34064;SDS011;20339;49.754;20.158;2023-11-19T14:15:43;6.90;;;4.40;;
34064;SDS011;20339;49.754;20.158;2023-11-19T14:18:15;6.70;;;3.90;;
34064;SDS011;20339;49.754;20.158;2023-11-19T14:20:46;8.70;;;5.70;;
34064;SDS011;20339;49.754;20.158;2023-11-19T14:23:18;9.00;;;5.40;;
34064;SDS011;20339;49.754;20.158;2023-11-19T14:25:49;9.50;;;5.60;;
34064;SDS011;20339;49.754;20.158;2023-11-19T14:28:20;8.60;;;5.60;;
34064;SDS011;20339;49.754;20.158;2023-11-19T14:30:53;8.30;;;4.80;;
34064;SDS011;20339;49.754;20.158;2023-11-19T14:33:25;6.30;;;3.70;;
34064;SDS011;20339;49.754;20.158;2023-11-19T14:35:57;8.60;;;5.40;;
34064;SDS011;20339;49.754;20.158;2023-11-19T14:38:34;8.00;;;5.10;;
34064;SDS011;20339;49.754;20.158;2023-11-19T14:41:07;5.70;;;3.80;;
34064;SDS011;20339;49.754;20.158;2023-11-19T14:43:40;7.30;;;4.60;;
34064;SDS011;20339;49.754;20.158;2023-11-19T14:46:15;7.60;;;5.30;;
34064;SDS011;20339;49.754;20.158;2023-11-19T14:48:46;7.60;;;4.90;;
34064;SDS011;20339;49.754;20.158;2023-11-19T14:51:17;7.80;;;4.00;;
34064;SDS011;20339;49.754;20.158;2023-11-19T14:53:48;6.80;;;4.10;;
34064;SDS011;20339;49.754;20.158;2023-11-19T14:56:20;6.10;;;3.90;;